sensor_id;sensor_type;location;lat;lon;timestamp;temperature;humidity
6964;DHT22;3522;50.856;7.278;2023-02-28T00:02:24;0.40;99.90
6964;DHT22;3522;50.856;7.278;2023-02-28T00:04:51;0.30;99.90
6964;DHT22;3522;50.856;7.278;2023-02-28T00:07:26;0.30;99.90
6964;DHT22;3522;50.856;7.278;2023-02-28T00:09:52;0.30;99.90
6964;DHT22;3522;50.856;7.278;2023-02-28T00:12:19;0.30;99.90
6964;DHT22;3522;50.856;7.278;2023-02-28T00:14:47;0.30;99.90
6964;DHT22;3522;50.856;7.278;2023-02-28T00:17:13;0.30;99.90
6964;DHT22;3522;50.856;7.278;2023-02-28T00:19:41;0.20;99.90
6964;DHT22;3522;50.856;7.278;2023-02-28T00:22:08;0.20;99.90
6964;DHT22;3522;50.856;7.278;2023-02-28T00:24:34;0.20;99.90
6964;DHT22;3522;50.856;7.278;2023-02-28T00:27:01;0.20;99.90
6964;DHT22;3522;50.856;7.278;2023-02-28T00:29:27;0.20;99.90
6964;DHT22;3522;50.856;7.278;2023-02-28T00:31:55;0.20;99.90
6964;DHT22;3522;50.856;7.278;2023-02-28T00:34:22;0.20;99.90
6964;DHT22;3522;50.856;7.278;2023-02-28T00:36:48;0.20;99.90
6964;DHT22;3522;50.856;7.278;2023-02-28T00:39:15;0.20;99.90
6964;DHT22;3522;50.856;7.278;2023-02-28T00:41:41;0.20;99.90
6964;DHT22;3522;50.856;7.278;2023-02-28T00:44:08;0.20;99.90
6964;DHT22;3522;50.856;7.278;2023-02-28T00:46:34;0.20;99.90
6964;DHT22;3522;50.856;7.278;2023-02-28T00:49:02;0.10;99.90
6964;DHT22;3522;50.856;7.278;2023-02-28T00:51:29;0.20;99.90
6964;DHT22;3522;50.856;7.278;2023-02-28T00:53:55;0.10;99.90
6964;DHT22;3522;50.856;7.278;2023-02-28T00:56:22;0.10;99.90
6964;DHT22;3522;50.856;7.278;2023-02-28T00:58:48;0.20;99.90
6964;DHT22;3522;50.856;7.278;2023-02-28T01:01:15;0.20;99.90
6964;DHT22;3522;50.856;7.278;2023-02-28T01:03:41;0.10;99.90
6964;DHT22;3522;50.856;7.278;2023-02-28T01:06:09;0.10;99.90
6964;DHT22;3522;50.856;7.278;2023-02-28T01:08:36;0.10;99.90
6964;DHT22;3522;50.856;7.278;2023-02-28T01:11:07;0.10;99.90
6964;DHT22;3522;50.856;7.278;2023-02-28T01:13:34;0.10;99.90
6964;DHT22;3522;50.856;7.278;2023-02-28T01:16:00;0.10;99.90
6964;DHT22;3522;50.856;7.278;2023-02-28T01:18:27;0.10;99.90
6964;DHT22;3522;50.856;7.278;2023-02-28T01:20:53;0.10;99.90
6964;DHT22;3522;50.856;7.278;2023-02-28T01:23:21;0.00;99.90
6964;DHT22;3522;50.856;7.278;2023-02-28T01:25:48;0.00;99.90
6964;DHT22;3522;50.856;7.278;2023-02-28T01:28:15;0.00;99.90
6964;DHT22;3522;50.856;7.278;2023-02-28T01:30:42;0.00;99.90
6964;DHT22;3522;50.856;7.278;2023-02-28T01:33:08;0.00;99.90
6964;DHT22;3522;50.856;7.278;2023-02-28T01:35:35;0.00;99.90
6964;DHT22;3522;50.856;7.278;2023-02-28T01:38:02;0.00;99.90
6964;DHT22;3522;50.856;7.278;2023-02-28T01:40:29;0.00;99.90
6964;DHT22;3522;50.856;7.278;2023-02-28T01:42:56;0.00;99.90
6964;DHT22;3522;50.856;7.278;2023-02-28T01:45:23;0.00;99.90
6964;DHT22;3522;50.856;7.278;2023-02-28T01:47:52;0.00;99.90
6964;DHT22;3522;50.856;7.278;2023-02-28T01:50:20;0.00;99.90
6964;DHT22;3522;50.856;7.278;2023-02-28T01:52:49;-0.10;99.90
6964;DHT22;3522;50.856;7.278;2023-02-28T01:55:17;-0.10;99.90
6964;DHT22;3522;50.856;7.278;2023-02-28T01:57:46;-0.10;99.90
6964;DHT22;3522;50.856;7.278;2023-02-28T02:00:15;-0.10;99.90
6964;DHT22;3522;50.856;7.278;2023-02-28T02:02:42;-0.10;99.90
6964;DHT22;3522;50.856;7.278;2023-02-28T02:05:10;-0.10;99.90
6964;DHT22;3522;50.856;7.278;2023-02-28T02:07:37;-0.10;99.90
6964;DHT22;3522;50.856;7.278;2023-02-28T02:10:06;-0.10;99.90
6964;DHT22;3522;50.856;7.278;2023-02-28T02:12:41;-0.10;99.90
6964;DHT22;3522;50.856;7.278;2023-02-28T02:15:12;-0.10;99.90
6964;DHT22;3522;50.856;7.278;2023-02-28T02:17:43;-0.10;99.90
6964;DHT22;3522;50.856;7.278;2023-02-28T02:23:14;-0.20;99.90
6964;DHT22;3522;50.856;7.278;2023-02-28T02:25:45;-0.20;99.90
6964;DHT22;3522;50.856;7.278;2023-02-28T02:28:22;-0.20;99.90
6964;DHT22;3522;50.856;7.278;2023-02-28T02:33:46;-0.30;99.90
6964;DHT22;3522;50.856;7.278;2023-02-28T02:36:19;-0.30;99.90
6964;DHT22;3522;50.856;7.278;2023-02-28T02:38:48;-0.30;99.90
6964;DHT22;3522;50.856;7.278;2023-02-28T02:41:17;-0.30;99.90
6964;DHT22;3522;50.856;7.278;2023-02-28T02:43:46;-0.40;99.90
6964;DHT22;3522;50.856;7.278;2023-02-28T02:46:16;-0.40;99.90
6964;DHT22;3522;50.856;7.278;2023-02-28T02:48:43;-0.40;99.90
6964;DHT22;3522;50.856;7.278;2023-02-28T02:51:12;-0.40;99.90
6964;DHT22;3522;50.856;7.278;2023-02-28T02:53:42;-0.40;99.90
6964;DHT22;3522;50.856;7.278;2023-02-28T02:56:10;-0.40;99.90
6964;DHT22;3522;50.856;7.278;2023-02-28T02:58:39;-0.40;99.90
6964;DHT22;3522;50.856;7.278;2023-02-28T03:01:07;-0.40;99.90
6964;DHT22;3522;50.856;7.278;2023-02-28T03:03:35;-0.40;99.90
6964;DHT22;3522;50.856;7.278;2023-02-28T03:06:02;-0.40;99.90
6964;DHT22;3522;50.856;7.278;2023-02-28T03:08:29;-0.40;99.90
6964;DHT22;3522;50.856;7.278;2023-02-28T03:11:01;-0.40;99.90
6964;DHT22;3522;50.856;7.278;2023-02-28T03:16:19;-0.40;99.90
6964;DHT22;3522;50.856;7.278;2023-02-28T03:18:48;-0.50;99.90
6964;DHT22;3522;50.856;7.278;2023-02-28T03:21:18;-0.50;99.90
6964;DHT22;3522;50.856;7.278;2023-02-28T03:23:48;-0.50;99.90
6964;DHT22;3522;50.856;7.278;2023-02-28T03:26:21;-0.50;99.90
6964;DHT22;3522;50.856;7.278;2023-02-28T03:28:51;-0.50;99.90
6964;DHT22;3522;50.856;7.278;2023-02-28T03:31:19;-0.60;99.90
6964;DHT22;3522;50.856;7.278;2023-02-28T03:33:47;-0.60;99.90
6964;DHT22;3522;50.856;7.278;2023-02-28T03:36:21;-0.60;99.90
6964;DHT22;3522;50.856;7.278;2023-02-28T03:38:49;-0.60;99.90
6964;DHT22;3522;50.856;7.278;2023-02-28T03:41:20;-0.60;99.90
6964;DHT22;3522;50.856;7.278;2023-02-28T03:43:48;-0.60;99.90
6964;DHT22;3522;50.856;7.278;2023-02-28T03:46:18;-0.60;99.90
6964;DHT22;3522;50.856;7.278;2023-02-28T03:48:48;-0.60;99.90
6964;DHT22;3522;50.856;7.278;2023-02-28T03:51:17;-0.60;99.90
6964;DHT22;3522;50.856;7.278;2023-02-28T03:53:46;-0.60;99.90
6964;DHT22;3522;50.856;7.278;2023-02-28T03:56:17;-0.60;99.90
6964;DHT22;3522;50.856;7.278;2023-02-28T03:58:47;-0.60;99.90
6964;DHT22;3522;50.856;7.278;2023-02-28T04:01:15;-0.60;99.90
6964;DHT22;3522;50.856;7.278;2023-02-28T04:03:43;-0.60;99.90
6964;DHT22;3522;50.856;7.278;2023-02-28T04:06:13;-0.60;99.90
6964;DHT22;3522;50.856;7.278;2023-02-28T04:08:41;-0.60;99.90
6964;DHT22;3522;50.856;7.278;2023-02-28T04:11:16;-0.60;99.90
6964;DHT22;3522;50.856;7.278;2023-02-28T04:13:44;-0.60;99.90
6964;DHT22;3522;50.856;7.278;2023-02-28T04:16:12;-0.70;99.90
6964;DHT22;3522;50.856;7.278;2023-02-28T04:18:39;-0.70;99.90
6964;DHT22;3522;50.856;7.278;2023-02-28T04:21:06;-0.70;99.90
6964;DHT22;3522;50.856;7.278;2023-02-28T04:23:32;-0.70;99.90
6964;DHT22;3522;50.856;7.278;2023-02-28T04:25:59;-0.70;99.90
6964;DHT22;3522;50.856;7.278;2023-02-28T04:28:25;-0.70;99.90
6964;DHT22;3522;50.856;7.278;2023-02-28T04:30:55;-0.70;99.90
6964;DHT22;3522;50.856;7.278;2023-02-28T04:33:23;-0.70;99.90
6964;DHT22;3522;50.856;7.278;2023-02-28T04:35:57;-0.70;99.90
6964;DHT22;3522;50.856;7.278;2023-02-28T04:38:24;-0.70;99.90
6964;DHT22;3522;50.856;7.278;2023-02-28T04:40:50;-0.80;99.90
6964;DHT22;3522;50.856;7.278;2023-02-28T04:43:17;-0.80;99.90
6964;DHT22;3522;50.856;7.278;2023-02-28T04:45:43;-0.80;99.90
6964;DHT22;3522;50.856;7.278;2023-02-28T04:48:10;-0.80;99.90
6964;DHT22;3522;50.856;7.278;2023-02-28T04:50:38;-0.80;99.90
6964;DHT22;3522;50.856;7.278;2023-02-28T04:53:04;-0.90;99.90
6964;DHT22;3522;50.856;7.278;2023-02-28T04:55:31;-0.90;99.90
6964;DHT22;3522;50.856;7.278;2023-02-28T04:57:57;-0.90;99.90
6964;DHT22;3522;50.856;7.278;2023-02-28T05:00:24;-0.90;99.90
6964;DHT22;3522;50.856;7.278;2023-02-28T05:02:50;-0.90;99.90
6964;DHT22;3522;50.856;7.278;2023-02-28T05:05:17;-0.90;99.90
6964;DHT22;3522;50.856;7.278;2023-02-28T05:07:46;-0.90;99.90
6964;DHT22;3522;50.856;7.278;2023-02-28T05:10:12;-0.90;99.90
6964;DHT22;3522;50.856;7.278;2023-02-28T05:12:39;-0.90;99.90
6964;DHT22;3522;50.856;7.278;2023-02-28T05:15:06;-0.90;99.90
6964;DHT22;3522;50.856;7.278;2023-02-28T05:17:32;-0.90;99.90
6964;DHT22;3522;50.856;7.278;2023-02-28T05:19:59;-0.90;99.90
6964;DHT22;3522;50.856;7.278;2023-02-28T05:22:25;-0.90;99.90
6964;DHT22;3522;50.856;7.278;2023-02-28T05:24:53;-1.00;99.90
6964;DHT22;3522;50.856;7.278;2023-02-28T05:27:20;-0.90;99.90
6964;DHT22;3522;50.856;7.278;2023-02-28T05:29:46;-1.00;99.90
6964;DHT22;3522;50.856;7.278;2023-02-28T05:32:13;-1.00;99.90
6964;DHT22;3522;50.856;7.278;2023-02-28T05:34:39;-0.90;99.90
6964;DHT22;3522;50.856;7.278;2023-02-28T05:37:07;-1.00;99.90
6964;DHT22;3522;50.856;7.278;2023-02-28T05:39:37;-1.00;99.90
6964;DHT22;3522;50.856;7.278;2023-02-28T05:42:05;-1.10;99.90
6964;DHT22;3522;50.856;7.278;2023-02-28T05:44:31;-1.10;99.90
6964;DHT22;3522;50.856;7.278;2023-02-28T05:46:58;-1.10;99.90
6964;DHT22;3522;50.856;7.278;2023-02-28T05:49:24;-1.10;99.90
6964;DHT22;3522;50.856;7.278;2023-02-28T05:51:51;-1.10;99.90
6964;DHT22;3522;50.856;7.278;2023-02-28T05:54:17;-1.20;99.90
6964;DHT22;3522;50.856;7.278;2023-02-28T05:56:44;-1.10;99.90
6964;DHT22;3522;50.856;7.278;2023-02-28T05:59:12;-1.10;99.90
6964;DHT22;3522;50.856;7.278;2023-02-28T06:01:39;-1.20;99.90
6964;DHT22;3522;50.856;7.278;2023-02-28T06:04:07;-1.20;99.90
6964;DHT22;3522;50.856;7.278;2023-02-28T06:06:34;-1.20;99.90
6964;DHT22;3522;50.856;7.278;2023-02-28T06:09:02;-1.20;99.90
6964;DHT22;3522;50.856;7.278;2023-02-28T06:11:30;-1.20;99.90
6964;DHT22;3522;50.856;7.278;2023-02-28T06:13:57;-1.20;99.90
6964;DHT22;3522;50.856;7.278;2023-02-28T06:16:26;-1.20;99.90
6964;DHT22;3522;50.856;7.278;2023-02-28T06:18:53;-1.20;99.90
6964;DHT22;3522;50.856;7.278;2023-02-28T06:21:21;-1.20;99.90
6964;DHT22;3522;50.856;7.278;2023-02-28T06:23:47;-1.20;99.90
6964;DHT22;3522;50.856;7.278;2023-02-28T06:26:14;-1.20;99.90
6964;DHT22;3522;50.856;7.278;2023-02-28T06:28:41;-1.30;99.90
6964;DHT22;3522;50.856;7.278;2023-02-28T06:31:08;-1.30;99.90
6964;DHT22;3522;50.856;7.278;2023-02-28T06:33:36;-1.30;99.90
6964;DHT22;3522;50.856;7.278;2023-02-28T06:36:03;-1.20;99.90
6964;DHT22;3522;50.856;7.278;2023-02-28T06:38:29;-1.20;99.90
6964;DHT22;3522;50.856;7.278;2023-02-28T06:40:56;-1.20;99.90
6964;DHT22;3522;50.856;7.278;2023-02-28T06:43:23;-1.20;99.90
6964;DHT22;3522;50.856;7.278;2023-02-28T06:45:50;-1.20;99.90
6964;DHT22;3522;50.856;7.278;2023-02-28T06:48:16;-1.20;99.90
6964;DHT22;3522;50.856;7.278;2023-02-28T06:50:45;-1.20;99.90
6964;DHT22;3522;50.856;7.278;2023-02-28T06:53:12;-1.20;99.90
6964;DHT22;3522;50.856;7.278;2023-02-28T06:55:38;-1.10;99.90
6964;DHT22;3522;50.856;7.278;2023-02-28T06:58:05;-1.10;99.90
6964;DHT22;3522;50.856;7.278;2023-02-28T07:00:39;-1.00;99.90
6964;DHT22;3522;50.856;7.278;2023-02-28T07:03:06;-1.00;99.90
6964;DHT22;3522;50.856;7.278;2023-02-28T07:05:34;-1.00;99.90
6964;DHT22;3522;50.856;7.278;2023-02-28T07:08:02;-0.90;99.90
6964;DHT22;3522;50.856;7.278;2023-02-28T07:10:28;-0.80;99.90
6964;DHT22;3522;50.856;7.278;2023-02-28T07:12:55;-0.70;99.90
6964;DHT22;3522;50.856;7.278;2023-02-28T07:15:21;-0.60;99.90
6964;DHT22;3522;50.856;7.278;2023-02-28T07:17:48;-0.40;99.90
6964;DHT22;3522;50.856;7.278;2023-02-28T07:20:14;-0.20;99.90
6964;DHT22;3522;50.856;7.278;2023-02-28T07:22:41;0.00;99.90
6964;DHT22;3522;50.856;7.278;2023-02-28T07:25:09;0.10;99.90
6964;DHT22;3522;50.856;7.278;2023-02-28T07:27:36;0.30;99.90
6964;DHT22;3522;50.856;7.278;2023-02-28T07:30:03;0.40;99.90
6964;DHT22;3522;50.856;7.278;2023-02-28T07:32:29;0.50;99.90
6964;DHT22;3522;50.856;7.278;2023-02-28T07:34:56;0.60;99.90
6964;DHT22;3522;50.856;7.278;2023-02-28T07:37:22;0.70;99.90
6964;DHT22;3522;50.856;7.278;2023-02-28T07:39:49;0.90;99.90
6964;DHT22;3522;50.856;7.278;2023-02-28T07:42:17;0.90;99.90
6964;DHT22;3522;50.856;7.278;2023-02-28T07:44:44;1.00;99.90
6964;DHT22;3522;50.856;7.278;2023-02-28T07:47:11;0.90;99.90
6964;DHT22;3522;50.856;7.278;2023-02-28T07:49:37;0.90;99.90
6964;DHT22;3522;50.856;7.278;2023-02-28T07:52:04;0.90;99.90
6964;DHT22;3522;50.856;7.278;2023-02-28T07:54:31;0.80;99.90
6964;DHT22;3522;50.856;7.278;2023-02-28T07:56:58;0.80;99.90
6964;DHT22;3522;50.856;7.278;2023-02-28T07:59:26;0.70;99.90
6964;DHT22;3522;50.856;7.278;2023-02-28T08:01:53;0.70;99.90
6964;DHT22;3522;50.856;7.278;2023-02-28T08:04:19;0.70;99.90
6964;DHT22;3522;50.856;7.278;2023-02-28T08:06:46;0.70;99.90
6964;DHT22;3522;50.856;7.278;2023-02-28T08:09:12;0.70;99.90
6964;DHT22;3522;50.856;7.278;2023-02-28T08:11:39;0.70;99.90
6964;DHT22;3522;50.856;7.278;2023-02-28T08:14:06;0.80;99.90
6964;DHT22;3522;50.856;7.278;2023-02-28T08:16:34;0.90;99.90
6964;DHT22;3522;50.856;7.278;2023-02-28T08:19:00;0.90;99.90
6964;DHT22;3522;50.856;7.278;2023-02-28T08:21:27;0.90;99.90
6964;DHT22;3522;50.856;7.278;2023-02-28T08:23:53;1.00;99.90
6964;DHT22;3522;50.856;7.278;2023-02-28T08:26:22;1.00;99.90
6964;DHT22;3522;50.856;7.278;2023-02-28T08:28:48;1.10;99.90
6964;DHT22;3522;50.856;7.278;2023-02-28T08:31:15;1.30;99.90
6964;DHT22;3522;50.856;7.278;2023-02-28T08:33:43;1.40;99.90
6964;DHT22;3522;50.856;7.278;2023-02-28T08:36:11;1.60;99.90
6964;DHT22;3522;50.856;7.278;2023-02-28T08:38:37;1.80;99.90
6964;DHT22;3522;50.856;7.278;2023-02-28T08:41:05;2.10;99.90
6964;DHT22;3522;50.856;7.278;2023-02-28T08:43:32;2.20;99.90
6964;DHT22;3522;50.856;7.278;2023-02-28T08:45:59;2.30;99.90
6964;DHT22;3522;50.856;7.278;2023-02-28T08:48:26;2.50;99.90
6964;DHT22;3522;50.856;7.278;2023-02-28T08:50:57;2.50;99.90
6964;DHT22;3522;50.856;7.278;2023-02-28T08:53:24;2.60;99.90
6964;DHT22;3522;50.856;7.278;2023-02-28T08:55:57;2.80;99.90
6964;DHT22;3522;50.856;7.278;2023-02-28T08:58:24;3.00;99.90
6964;DHT22;3522;50.856;7.278;2023-02-28T09:00:51;3.10;99.50
6964;DHT22;3522;50.856;7.278;2023-02-28T09:03:17;3.10;98.90
6964;DHT22;3522;50.856;7.278;2023-02-28T09:05:51;3.20;99.10
6964;DHT22;3522;50.856;7.278;2023-02-28T09:08:19;3.40;98.90
6964;DHT22;3522;50.856;7.278;2023-02-28T09:10:45;3.50;98.40
6964;DHT22;3522;50.856;7.278;2023-02-28T09:13:12;3.60;98.00
6964;DHT22;3522;50.856;7.278;2023-02-28T09:15:39;3.60;97.20
6964;DHT22;3522;50.856;7.278;2023-02-28T09:18:05;3.60;97.10
6964;DHT22;3522;50.856;7.278;2023-02-28T09:20:32;3.60;96.70
6964;DHT22;3522;50.856;7.278;2023-02-28T09:22:59;3.50;96.60
6964;DHT22;3522;50.856;7.278;2023-02-28T09:25:27;3.80;96.70
6964;DHT22;3522;50.856;7.278;2023-02-28T09:27:53;3.90;96.40
6964;DHT22;3522;50.856;7.278;2023-02-28T09:30:20;3.90;96.40
6964;DHT22;3522;50.856;7.278;2023-02-28T09:32:47;3.90;95.80
6964;DHT22;3522;50.856;7.278;2023-02-28T09:35:17;3.90;95.20
6964;DHT22;3522;50.856;7.278;2023-02-28T09:37:44;4.00;95.30
6964;DHT22;3522;50.856;7.278;2023-02-28T09:40:11;4.10;94.80
6964;DHT22;3522;50.856;7.278;2023-02-28T09:42:39;4.20;94.90
6964;DHT22;3522;50.856;7.278;2023-02-28T09:45:06;4.30;94.80
6964;DHT22;3522;50.856;7.278;2023-02-28T09:47:36;4.40;94.40
6964;DHT22;3522;50.856;7.278;2023-02-28T09:50:06;4.50;93.80
6964;DHT22;3522;50.856;7.278;2023-02-28T09:52:39;4.40;93.20
6964;DHT22;3522;50.856;7.278;2023-02-28T09:55:15;4.30;92.90
6964;DHT22;3522;50.856;7.278;2023-02-28T09:57:45;4.40;92.10
6964;DHT22;3522;50.856;7.278;2023-02-28T10:00:13;4.50;92.50
6964;DHT22;3522;50.856;7.278;2023-02-28T10:02:50;4.80;93.10
6964;DHT22;3522;50.856;7.278;2023-02-28T10:05:18;4.80;91.60
6964;DHT22;3522;50.856;7.278;2023-02-28T10:07:50;4.90;91.00
6964;DHT22;3522;50.856;7.278;2023-02-28T10:10:21;5.00;90.70
6964;DHT22;3522;50.856;7.278;2023-02-28T10:12:51;4.90;91.20
6964;DHT22;3522;50.856;7.278;2023-02-28T10:15:18;4.70;90.30
6964;DHT22;3522;50.856;7.278;2023-02-28T10:17:47;4.60;90.20
6964;DHT22;3522;50.856;7.278;2023-02-28T10:20:18;4.60;90.40
6964;DHT22;3522;50.856;7.278;2023-02-28T10:22:49;4.80;90.90
6964;DHT22;3522;50.856;7.278;2023-02-28T10:25:18;5.10;90.40
6964;DHT22;3522;50.856;7.278;2023-02-28T10:27:45;5.10;90.30
6964;DHT22;3522;50.856;7.278;2023-02-28T10:30:13;5.20;90.20
6964;DHT22;3522;50.856;7.278;2023-02-28T10:32:40;5.40;90.30
6964;DHT22;3522;50.856;7.278;2023-02-28T10:35:14;5.90;90.60
6964;DHT22;3522;50.856;7.278;2023-02-28T10:37:41;6.00;86.60
6964;DHT22;3522;50.856;7.278;2023-02-28T10:40:24;5.80;85.40
6964;DHT22;3522;50.856;7.278;2023-02-28T10:42:54;5.80;87.00
6964;DHT22;3522;50.856;7.278;2023-02-28T10:45:22;6.00;86.70
6964;DHT22;3522;50.856;7.278;2023-02-28T10:47:52;5.60;84.00
6964;DHT22;3522;50.856;7.278;2023-02-28T10:50:27;5.60;87.90
6964;DHT22;3522;50.856;7.278;2023-02-28T10:52:54;6.10;85.90
6964;DHT22;3522;50.856;7.278;2023-02-28T10:55:21;6.10;84.70
6964;DHT22;3522;50.856;7.278;2023-02-28T10:57:49;6.20;82.80
6964;DHT22;3522;50.856;7.278;2023-02-28T11:00:16;6.30;84.30
6964;DHT22;3522;50.856;7.278;2023-02-28T11:02:45;6.70;85.90
6964;DHT22;3522;50.856;7.278;2023-02-28T11:05:28;6.80;83.20
6964;DHT22;3522;50.856;7.278;2023-02-28T11:07:56;7.00;83.40
6964;DHT22;3522;50.856;7.278;2023-02-28T11:10:24;6.70;79.80
6964;DHT22;3522;50.856;7.278;2023-02-28T11:12:53;6.70;79.60
6964;DHT22;3522;50.856;7.278;2023-02-28T11:15:21;6.60;81.80
6964;DHT22;3522;50.856;7.278;2023-02-28T11:17:54;6.10;79.70
6964;DHT22;3522;50.856;7.278;2023-02-28T11:20:21;6.00;80.90
6964;DHT22;3522;50.856;7.278;2023-02-28T11:22:49;6.30;81.60
6964;DHT22;3522;50.856;7.278;2023-02-28T11:25:19;6.40;81.20
6964;DHT22;3522;50.856;7.278;2023-02-28T11:27:47;6.70;84.00
6964;DHT22;3522;50.856;7.278;2023-02-28T11:30:28;6.60;81.50
6964;DHT22;3522;50.856;7.278;2023-02-28T11:32:56;6.60;80.80
6964;DHT22;3522;50.856;7.278;2023-02-28T11:35:25;6.60;81.00
6964;DHT22;3522;50.856;7.278;2023-02-28T11:37:52;6.60;81.40
6964;DHT22;3522;50.856;7.278;2023-02-28T11:40:19;6.70;80.10
6964;DHT22;3522;50.856;7.278;2023-02-28T11:42:50;6.60;80.10
6964;DHT22;3522;50.856;7.278;2023-02-28T11:45:22;6.60;78.90
6964;DHT22;3522;50.856;7.278;2023-02-28T11:47:55;6.20;78.70
6964;DHT22;3522;50.856;7.278;2023-02-28T11:50:33;5.90;80.00
6964;DHT22;3522;50.856;7.278;2023-02-28T11:53:04;5.80;81.50
6964;DHT22;3522;50.856;7.278;2023-02-28T11:55:32;6.00;82.70
6964;DHT22;3522;50.856;7.278;2023-02-28T11:58:14;6.40;82.70
6964;DHT22;3522;50.856;7.278;2023-02-28T12:00:55;6.70;82.40
6964;DHT22;3522;50.856;7.278;2023-02-28T12:03:26;6.90;79.60
6964;DHT22;3522;50.856;7.278;2023-02-28T12:05:58;6.60;80.20
6964;DHT22;3522;50.856;7.278;2023-02-28T12:08:31;6.50;81.60
6964;DHT22;3522;50.856;7.278;2023-02-28T12:11:05;6.50;82.30
6964;DHT22;3522;50.856;7.278;2023-02-28T12:13:36;6.60;81.80
6964;DHT22;3522;50.856;7.278;2023-02-28T12:16:12;6.60;81.80
6964;DHT22;3522;50.856;7.278;2023-02-28T12:18:48;6.70;80.20
6964;DHT22;3522;50.856;7.278;2023-02-28T12:21:20;6.70;78.30
6964;DHT22;3522;50.856;7.278;2023-02-28T12:23:57;6.80;80.00
6964;DHT22;3522;50.856;7.278;2023-02-28T12:26:29;6.70;79.50
6964;DHT22;3522;50.856;7.278;2023-02-28T12:28:57;6.60;79.10
6964;DHT22;3522;50.856;7.278;2023-02-28T12:31:27;6.60;79.20
6964;DHT22;3522;50.856;7.278;2023-02-28T12:33:56;6.50;80.30
6964;DHT22;3522;50.856;7.278;2023-02-28T12:36:27;6.20;80.60
6964;DHT22;3522;50.856;7.278;2023-02-28T12:38:55;6.20;82.30
6964;DHT22;3522;50.856;7.278;2023-02-28T12:41:24;6.50;84.40
6964;DHT22;3522;50.856;7.278;2023-02-28T12:43:54;6.50;81.90
6964;DHT22;3522;50.856;7.278;2023-02-28T12:46:23;6.40;82.50
6964;DHT22;3522;50.856;7.278;2023-02-28T12:48:50;6.30;83.70
6964;DHT22;3522;50.856;7.278;2023-02-28T12:51:18;6.30;84.50
6964;DHT22;3522;50.856;7.278;2023-02-28T12:53:52;6.30;85.00
6964;DHT22;3522;50.856;7.278;2023-02-28T12:56:22;6.30;83.70
6964;DHT22;3522;50.856;7.278;2023-02-28T12:58:54;6.20;84.40
6964;DHT22;3522;50.856;7.278;2023-02-28T13:01:28;6.10;83.00
6964;DHT22;3522;50.856;7.278;2023-02-28T13:04:04;5.90;82.80
6964;DHT22;3522;50.856;7.278;2023-02-28T13:06:51;5.90;84.00
6964;DHT22;3522;50.856;7.278;2023-02-28T13:09:23;5.70;83.20
6964;DHT22;3522;50.856;7.278;2023-02-28T13:11:50;5.60;83.70
6964;DHT22;3522;50.856;7.278;2023-02-28T13:14:25;5.70;84.30
6964;DHT22;3522;50.856;7.278;2023-02-28T13:17:02;6.00;84.80
6964;DHT22;3522;50.856;7.278;2023-02-28T13:19:30;6.00;83.60
6964;DHT22;3522;50.856;7.278;2023-02-28T13:21:57;6.10;82.20
6964;DHT22;3522;50.856;7.278;2023-02-28T13:24:39;6.20;83.40
6964;DHT22;3522;50.856;7.278;2023-02-28T13:29:57;6.40;83.10
6964;DHT22;3522;50.856;7.278;2023-02-28T13:32:31;6.40;83.10
6964;DHT22;3522;50.856;7.278;2023-02-28T13:38:01;6.20;82.60
6964;DHT22;3522;50.856;7.278;2023-02-28T13:40:36;6.20;82.30
6964;DHT22;3522;50.856;7.278;2023-02-28T13:43:05;6.10;81.90
6964;DHT22;3522;50.856;7.278;2023-02-28T13:45:33;6.00;82.20
6964;DHT22;3522;50.856;7.278;2023-02-28T13:48:04;6.10;84.40
6964;DHT22;3522;50.856;7.278;2023-02-28T13:50:35;6.20;83.20
6964;DHT22;3522;50.856;7.278;2023-02-28T13:53:12;6.00;82.50
6964;DHT22;3522;50.856;7.278;2023-02-28T13:55:48;6.00;82.90
6964;DHT22;3522;50.856;7.278;2023-02-28T13:58:23;6.00;83.30
6964;DHT22;3522;50.856;7.278;2023-02-28T14:00:58;5.90;82.70
6964;DHT22;3522;50.856;7.278;2023-02-28T14:03:31;5.80;84.90
6964;DHT22;3522;50.856;7.278;2023-02-28T14:06:14;5.80;85.20
6964;DHT22;3522;50.856;7.278;2023-02-28T14:08:52;5.80;85.10
6964;DHT22;3522;50.856;7.278;2023-02-28T14:11:28;6.10;87.60
6964;DHT22;3522;50.856;7.278;2023-02-28T14:13:55;5.80;83.50
6964;DHT22;3522;50.856;7.278;2023-02-28T14:16:22;6.00;86.30
6964;DHT22;3522;50.856;7.278;2023-02-28T14:18:50;6.10;85.00
6964;DHT22;3522;50.856;7.278;2023-02-28T14:21:20;6.10;82.90
6964;DHT22;3522;50.856;7.278;2023-02-28T14:26:43;5.90;81.70
6964;DHT22;3522;50.856;7.278;2023-02-28T14:29:17;5.80;83.90
6964;DHT22;3522;50.856;7.278;2023-02-28T14:31:47;5.90;82.70
6964;DHT22;3522;50.856;7.278;2023-02-28T14:34:26;5.90;83.30
6964;DHT22;3522;50.856;7.278;2023-02-28T14:36:57;5.80;82.90
6964;DHT22;3522;50.856;7.278;2023-02-28T14:39:25;5.70;83.40
6964;DHT22;3522;50.856;7.278;2023-02-28T14:41:53;5.60;83.40
6964;DHT22;3522;50.856;7.278;2023-02-28T14:44:21;5.60;83.70
6964;DHT22;3522;50.856;7.278;2023-02-28T14:46:48;5.70;84.60
6964;DHT22;3522;50.856;7.278;2023-02-28T14:49:17;5.80;85.30
6964;DHT22;3522;50.856;7.278;2023-02-28T14:51:44;5.90;84.10
6964;DHT22;3522;50.856;7.278;2023-02-28T14:54:13;5.90;83.60
6964;DHT22;3522;50.856;7.278;2023-02-28T14:56:40;6.00;83.50
6964;DHT22;3522;50.856;7.278;2023-02-28T14:59:22;6.00;85.10
6964;DHT22;3522;50.856;7.278;2023-02-28T15:01:49;5.80;84.30
6964;DHT22;3522;50.856;7.278;2023-02-28T15:04:18;5.80;84.90
6964;DHT22;3522;50.856;7.278;2023-02-28T15:06:46;5.80;83.80
6964;DHT22;3522;50.856;7.278;2023-02-28T15:09:33;5.80;85.30
6964;DHT22;3522;50.856;7.278;2023-02-28T15:11:59;5.90;84.80
6964;DHT22;3522;50.856;7.278;2023-02-28T15:14:27;5.90;83.20
6964;DHT22;3522;50.856;7.278;2023-02-28T15:16:56;5.90;82.70
6964;DHT22;3522;50.856;7.278;2023-02-28T15:19:23;5.90;83.80
6964;DHT22;3522;50.856;7.278;2023-02-28T15:21:51;5.90;83.30
6964;DHT22;3522;50.856;7.278;2023-02-28T15:24:19;5.80;82.90
6964;DHT22;3522;50.856;7.278;2023-02-28T15:26:50;5.80;83.40
6964;DHT22;3522;50.856;7.278;2023-02-28T15:29:19;5.80;83.70
6964;DHT22;3522;50.856;7.278;2023-02-28T15:31:48;5.70;82.60
6964;DHT22;3522;50.856;7.278;2023-02-28T15:34:17;5.70;82.50
6964;DHT22;3522;50.856;7.278;2023-02-28T15:36:44;5.70;84.30
6964;DHT22;3522;50.856;7.278;2023-02-28T15:39:18;5.70;84.70
6964;DHT22;3522;50.856;7.278;2023-02-28T15:41:45;5.60;84.10
6964;DHT22;3522;50.856;7.278;2023-02-28T15:44:16;5.60;85.20
6964;DHT22;3522;50.856;7.278;2023-02-28T15:46:43;5.60;86.10
6964;DHT22;3522;50.856;7.278;2023-02-28T15:49:13;5.60;85.20
6964;DHT22;3522;50.856;7.278;2023-02-28T15:51:43;5.50;83.50
6964;DHT22;3522;50.856;7.278;2023-02-28T15:54:11;5.50;84.60
6964;DHT22;3522;50.856;7.278;2023-02-28T15:56:43;5.40;85.30
6964;DHT22;3522;50.856;7.278;2023-02-28T15:59:12;5.40;84.50
6964;DHT22;3522;50.856;7.278;2023-02-28T16:01:40;5.40;85.20
6964;DHT22;3522;50.856;7.278;2023-02-28T16:04:11;5.40;85.20
6964;DHT22;3522;50.856;7.278;2023-02-28T16:06:41;5.30;86.20
6964;DHT22;3522;50.856;7.278;2023-02-28T16:09:09;5.30;86.50
6964;DHT22;3522;50.856;7.278;2023-02-28T16:11:37;5.30;87.60
6964;DHT22;3522;50.856;7.278;2023-02-28T16:14:04;5.20;85.60
6964;DHT22;3522;50.856;7.278;2023-02-28T16:16:31;5.20;86.30
6964;DHT22;3522;50.856;7.278;2023-02-28T16:18:59;5.20;87.10
6964;DHT22;3522;50.856;7.278;2023-02-28T16:21:25;5.20;87.40
6964;DHT22;3522;50.856;7.278;2023-02-28T16:23:53;5.20;88.20
6964;DHT22;3522;50.856;7.278;2023-02-28T16:26:21;5.10;87.90
6964;DHT22;3522;50.856;7.278;2023-02-28T16:28:48;5.10;88.20
6964;DHT22;3522;50.856;7.278;2023-02-28T16:31:15;5.10;88.40
6964;DHT22;3522;50.856;7.278;2023-02-28T16:33:43;5.00;87.80
6964;DHT22;3522;50.856;7.278;2023-02-28T16:36:12;5.00;88.60
6964;DHT22;3522;50.856;7.278;2023-02-28T16:38:39;5.00;88.20
6964;DHT22;3522;50.856;7.278;2023-02-28T16:41:07;4.90;88.50